PWSweather.com
Personal Weather Stations
Station Observations
IPORTUGA89
BarosaPT

BarosaPT

Lat: 39.754028, Lon: -8.843

Elevation: 98

Station Type: Davis Vp2

High Low Average
Temperature 97.0°F36.1°C 59.4°F15.2°C 73.0°F22.8°C
Dew Point 68.2°F20.1°C 56.3°F13.5°C 62.0°F16.7°C
Winds 10.1 mph 16.3 kmh Calm Calm 2.0 mph SW3.2 kmh SW
Wind Gusts 17.0 mph27.4 kmh -- 5.0 mph8.0 kmh
Humidity 96% 33% 73%
Pressure 30.23 in1023.7 mb 30.11 in1019.6 mb -
Precipitation 0.00 in0.0 mm - -
Hour Temp Dew Point Humidity Winds Wind Gusts Pressure Precip Precip Rate Daily Precip Total
12:05 AM 64.2°F17.9°C 62.4°F16.9°C 94% 0.9 mph WSW1.4 kmh WSW 4.0 mph6.4 kmh 30.23 in1023.7 mb 0.00 in0.0 mm 0.00 in0.0 mm 0.00 in0.0 mm
12:15 AM 64.0°F17.8°C 62.2°F16.8°C 94% 2.0 mph WNW3.2 kmh WNW 4.0 mph6.4 kmh 30.22 in1023.4 mb 0.00 in0.0 mm 0.00 in0.0 mm 0.00 in0.0 mm
12:25 AM 64.0°F17.8°C 62.2°F16.8°C 94% 2.0 mph W3.2 kmh W 6.0 mph9.7 kmh 30.22 in1023.4 mb 0.00 in0.0 mm 0.00 in0.0 mm 0.00 in0.0 mm
12:35 AM 63.9°F17.7°C 62.1°F16.7°C 94% 2.0 mph W3.2 kmh W 4.0 mph6.4 kmh 30.22 in1023.4 mb 0.00 in0.0 mm 0.00 in0.0 mm 0.00 in0.0 mm
12:45 AM 63.9°F17.7°C 62.1°F16.7°C 94% 0.9 mph W1.4 kmh W 2.0 mph3.2 kmh 30.22 in1023.4 mb 0.00 in0.0 mm 0.00 in0.0 mm 0.00 in0.0 mm
12:55 AM 63.7°F17.6°C 61.9°F16.6°C 94% Calm Calm 0.9 mph1.4 kmh 30.21 in1023.0 mb 0.00 in0.0 mm 0.00 in0.0 mm 0.00 in0.0 mm
01:05 AM 63.7°F17.6°C 61.9°F16.6°C 94% 0.9 mph WNW1.4 kmh WNW 2.9 mph4.7 kmh 30.21 in1023.0 mb 0.00 in0.0 mm 0.00 in0.0 mm 0.00 in0.0 mm
01:16 AM 63.7°F17.6°C 61.9°F16.6°C 94% Calm Calm 0.9 mph1.4 kmh 30.21 in1023.0 mb 0.00 in0.0 mm 0.00 in0.0 mm 0.00 in0.0 mm
01:26 AM 63.7°F17.6°C 61.9°F16.6°C 94% Calm Calm 2.0 mph3.2 kmh 30.21 in1023.0 mb 0.00 in0.0 mm 0.00 in0.0 mm 0.00 in0.0 mm
01:36 AM 63.5°F17.5°C 61.7°F16.5°C 94% Calm Calm 2.9 mph4.7 kmh 30.20 in1022.7 mb 0.00 in0.0 mm 0.00 in0.0 mm 0.00 in0.0 mm
01:46 AM 63.3°F17.4°C 61.5°F16.4°C 94% 2.0 mph SSE3.2 kmh SSE 4.9 mph7.9 kmh 30.20 in1022.7 mb 0.00 in0.0 mm 0.00 in0.0 mm 0.00 in0.0 mm
01:56 AM 63.3°F17.4°C 61.5°F16.4°C 94% Calm Calm 2.0 mph3.2 kmh 30.20 in1022.7 mb 0.00 in0.0 mm 0.00 in0.0 mm 0.00 in0.0 mm
02:06 AM 63.3°F17.4°C 61.5°F16.4°C 94% Calm Calm 2.0 mph3.2 kmh 30.19 in1022.4 mb 0.00 in0.0 mm 0.00 in0.0 mm 0.00 in0.0 mm
02:16 AM 63.1°F17.3°C 61.3°F16.3°C 94% Calm Calm 2.0 mph3.2 kmh 30.19 in1022.4 mb 0.00 in0.0 mm 0.00 in0.0 mm 0.00 in0.0 mm
02:27 AM 63.1°F17.3°C 61.3°F16.3°C 94% Calm Calm 2.0 mph3.2 kmh 30.19 in1022.4 mb 0.00 in0.0 mm 0.00 in0.0 mm 0.00 in0.0 mm
02:37 AM 63.1°F17.3°C 61.3°F16.3°C 94% Calm Calm 2.0 mph3.2 kmh 30.19 in1022.4 mb 0.00 in0.0 mm 0.00 in0.0 mm 0.00 in0.0 mm
02:47 AM 63.1°F17.3°C 61.3°F16.3°C 94% 2.0 mph SW3.2 kmh SW 2.9 mph4.7 kmh 30.19 in1022.4 mb 0.00 in0.0 mm 0.00 in0.0 mm 0.00 in0.0 mm
02:57 AM 63.1°F17.3°C 61.7°F16.5°C 95% 0.9 mph SW1.4 kmh SW 2.9 mph4.7 kmh 30.19 in1022.4 mb 0.00 in0.0 mm 0.00 in0.0 mm 0.00 in0.0 mm
03:07 AM 63.0°F17.2°C 61.2°F16.2°C 94% 2.0 mph SW3.2 kmh SW 2.9 mph4.7 kmh 30.19 in1022.4 mb 0.00 in0.0 mm 0.00 in0.0 mm 0.00 in0.0 mm
03:17 AM 63.0°F17.2°C 61.2°F16.2°C 94% 0.9 mph SW1.4 kmh SW 2.9 mph4.7 kmh 30.19 in1022.4 mb 0.00 in0.0 mm 0.00 in0.0 mm 0.00 in0.0 mm
03:27 AM 63.0°F17.2°C 61.2°F16.2°C 94% Calm Calm 2.0 mph3.2 kmh 30.19 in1022.4 mb 0.00 in0.0 mm 0.00 in0.0 mm 0.00 in0.0 mm
03:37 AM 63.0°F17.2°C 61.5°F16.4°C 95% Calm Calm 2.0 mph3.2 kmh 30.18 in1022.0 mb 0.00 in0.0 mm 0.00 in0.0 mm 0.00 in0.0 mm
03:47 AM 63.0°F17.2°C 61.5°F16.4°C 95% 0.9 mph SW1.4 kmh SW 2.0 mph3.2 kmh 30.19 in1022.4 mb 0.00 in0.0 mm 0.00 in0.0 mm 0.00 in0.0 mm
03:57 AM 63.0°F17.2°C 61.5°F16.4°C 95% Calm Calm 0.9 mph1.4 kmh 30.18 in1022.0 mb 0.00 in0.0 mm 0.00 in0.0 mm 0.00 in0.0 mm
04:08 AM 63.0°F17.2°C 61.5°F16.4°C 95% Calm Calm 0.9 mph1.4 kmh 30.18 in1022.0 mb 0.00 in0.0 mm 0.00 in0.0 mm 0.00 in0.0 mm
04:18 AM 63.0°F17.2°C 61.5°F16.4°C 95% 0.9 mph SW1.4 kmh SW 2.0 mph3.2 kmh 30.18 in1022.0 mb 0.00 in0.0 mm 0.00 in0.0 mm 0.00 in0.0 mm
04:28 AM 63.0°F17.2°C 61.5°F16.4°C 95% 0.9 mph SSW1.4 kmh SSW 2.9 mph4.7 kmh 30.18 in1022.0 mb 0.00 in0.0 mm 0.00 in0.0 mm 0.00 in0.0 mm
04:38 AM 62.8°F17.1°C 61.3°F16.3°C 95% 0.9 mph SSW1.4 kmh SSW 2.0 mph3.2 kmh 30.18 in1022.0 mb 0.00 in0.0 mm 0.00 in0.0 mm 0.00 in0.0 mm
04:48 AM 62.8°F17.1°C 61.3°F16.3°C 95% Calm Calm 2.0 mph3.2 kmh 30.18 in1022.0 mb 0.00 in0.0 mm 0.00 in0.0 mm 0.00 in0.0 mm
04:58 AM 63.0°F17.2°C 61.5°F16.4°C 95% 0.9 mph W1.4 kmh W 2.0 mph3.2 kmh 30.18 in1022.0 mb 0.00 in0.0 mm 0.00 in0.0 mm 0.00 in0.0 mm
05:08 AM 63.0°F17.2°C 61.5°F16.4°C 95% Calm Calm 2.0 mph3.2 kmh 30.18 in1022.0 mb 0.00 in0.0 mm 0.00 in0.0 mm 0.00 in0.0 mm
05:18 AM 63.0°F17.2°C 61.5°F16.4°C 95% 2.0 mph NNE3.2 kmh NNE 4.0 mph6.4 kmh 30.18 in1022.0 mb 0.00 in0.0 mm 0.00 in0.0 mm 0.00 in0.0 mm
05:28 AM 63.0°F17.2°C 61.5°F16.4°C 95% 2.0 mph NNE3.2 kmh NNE 4.0 mph6.4 kmh 30.18 in1022.0 mb 0.00 in0.0 mm 0.00 in0.0 mm 0.00 in0.0 mm
05:38 AM 63.0°F17.2°C 61.5°F16.4°C 95% 2.0 mph NNE3.2 kmh NNE 2.9 mph4.7 kmh 30.18 in1022.0 mb 0.00 in0.0 mm 0.00 in0.0 mm 0.00 in0.0 mm
05:48 AM 63.0°F17.2°C 61.5°F16.4°C 95% 0.9 mph NNE1.4 kmh NNE 2.9 mph4.7 kmh 30.18 in1022.0 mb 0.00 in0.0 mm 0.00 in0.0 mm 0.00 in0.0 mm
05:58 AM 63.0°F17.2°C 61.5°F16.4°C 95% 0.9 mph NNE1.4 kmh NNE 4.0 mph6.4 kmh 30.18 in1022.0 mb 0.00 in0.0 mm 0.00 in0.0 mm 0.00 in0.0 mm
06:08 AM 63.0°F17.2°C 61.5°F16.4°C 95% 2.0 mph NNE3.2 kmh NNE 4.0 mph6.4 kmh 30.18 in1022.0 mb 0.00 in0.0 mm 0.00 in0.0 mm 0.00 in0.0 mm
06:18 AM 62.8°F17.1°C 61.3°F16.3°C 95% Calm Calm 2.9 mph4.7 kmh 30.18 in1022.0 mb 0.00 in0.0 mm 0.00 in0.0 mm 0.00 in0.0 mm
06:28 AM 62.8°F17.1°C 61.3°F16.3°C 95% Calm Calm 2.0 mph3.2 kmh 30.18 in1022.0 mb 0.00 in0.0 mm 0.00 in0.0 mm 0.00 in0.0 mm
06:38 AM 62.8°F17.1°C 61.3°F16.3°C 95% 0.9 mph NNE1.4 kmh NNE 2.0 mph3.2 kmh 30.19 in1022.4 mb 0.00 in0.0 mm 0.00 in0.0 mm 0.00 in0.0 mm
06:48 AM 62.8°F17.1°C 61.3°F16.3°C 95% Calm Calm 2.0 mph3.2 kmh 30.19 in1022.4 mb 0.00 in0.0 mm 0.00 in0.0 mm 0.00 in0.0 mm
06:58 AM 62.8°F17.1°C 61.3°F16.3°C 95% 0.9 mph NNE1.4 kmh NNE 2.0 mph3.2 kmh 30.19 in1022.4 mb 0.00 in0.0 mm 0.00 in0.0 mm 0.00 in0.0 mm
07:08 AM 62.8°F17.1°C 61.3°F16.3°C 95% 2.0 mph N3.2 kmh N 2.9 mph4.7 kmh 30.19 in1022.4 mb 0.00 in0.0 mm 0.00 in0.0 mm 0.00 in0.0 mm
07:19 AM 62.6°F17.0°C 61.2°F16.2°C 95% 2.0 mph NNW3.2 kmh NNW 4.0 mph6.4 kmh 30.19 in1022.4 mb 0.00 in0.0 mm 0.00 in0.0 mm 0.00 in0.0 mm
07:29 AM 62.2°F16.8°C 60.8°F16.0°C 95% 2.0 mph NNW3.2 kmh NNW 4.0 mph6.4 kmh 30.19 in1022.4 mb 0.00 in0.0 mm 0.00 in0.0 mm 0.00 in0.0 mm
07:39 AM 62.4°F16.9°C 61.0°F16.1°C 95% 0.9 mph NNW1.4 kmh NNW 4.0 mph6.4 kmh 30.20 in1022.7 mb 0.00 in0.0 mm 0.00 in0.0 mm 0.00 in0.0 mm
07:49 AM 62.4°F16.9°C 61.0°F16.1°C 95% 2.0 mph NE3.2 kmh NE 4.0 mph6.4 kmh 30.20 in1022.7 mb 0.00 in0.0 mm 0.00 in0.0 mm 0.00 in0.0 mm
07:59 AM 62.2°F16.8°C 60.8°F16.0°C 95% 2.0 mph NE3.2 kmh NE 2.9 mph4.7 kmh 30.20 in1022.7 mb 0.00 in0.0 mm 0.00 in0.0 mm 0.00 in0.0 mm
08:09 AM 62.4°F16.9°C 61.0°F16.1°C 95% Calm Calm 2.0 mph3.2 kmh 30.20 in1022.7 mb 0.00 in0.0 mm 0.00 in0.0 mm 0.00 in0.0 mm
08:19 AM 62.4°F16.9°C 61.0°F16.1°C 95% 0.9 mph WNW1.4 kmh WNW 2.9 mph4.7 kmh 30.20 in1022.7 mb 0.00 in0.0 mm 0.00 in0.0 mm 0.00 in0.0 mm
08:29 AM 62.8°F17.1°C 61.3°F16.3°C 95% 0.9 mph E1.4 kmh E 2.9 mph4.7 kmh 30.21 in1023.0 mb 0.00 in0.0 mm 0.00 in0.0 mm 0.00 in0.0 mm
08:39 AM 63.1°F17.3°C 61.7°F16.5°C 95% 2.0 mph ENE3.2 kmh ENE 4.0 mph6.4 kmh 30.20 in1022.7 mb 0.00 in0.0 mm 0.00 in0.0 mm 0.00 in0.0 mm
08:49 AM 64.2°F17.9°C 63.1°F17.3°C 96% 2.0 mph NE3.2 kmh NE 4.0 mph6.4 kmh 30.20 in1022.7 mb 0.00 in0.0 mm 0.00 in0.0 mm 0.00 in0.0 mm
08:59 AM 64.8°F18.2°C 63.3°F17.4°C 95% 0.9 mph NW1.4 kmh NW 2.9 mph4.7 kmh 30.20 in1022.7 mb 0.00 in0.0 mm 0.00 in0.0 mm 0.00 in0.0 mm
09:09 AM 66.6°F19.2°C 65.3°F18.5°C 96% 0.9 mph E1.4 kmh E 2.9 mph4.7 kmh 30.20 in1022.7 mb 0.00 in0.0 mm 0.00 in0.0 mm 0.00 in0.0 mm
09:19 AM 67.5°F19.7°C 65.7°F18.7°C 94% 0.9 mph NE1.4 kmh NE 4.0 mph6.4 kmh 30.20 in1022.7 mb 0.00 in0.0 mm 0.00 in0.0 mm 0.00 in0.0 mm
09:29 AM 69.3°F20.7°C 66.9°F19.4°C 92% 2.0 mph NE3.2 kmh NE 4.0 mph6.4 kmh 30.20 in1022.7 mb 0.00 in0.0 mm 0.00 in0.0 mm 0.00 in0.0 mm
09:39 AM 71.2°F21.8°C 66.2°F19.0°C 84% 2.0 mph NE3.2 kmh NE 4.9 mph7.9 kmh 30.20 in1022.7 mb 0.00 in0.0 mm 0.00 in0.0 mm 0.00 in0.0 mm
09:49 AM 72.7°F22.6°C 66.2°F19.0°C 80% 2.0 mph E3.2 kmh E 4.0 mph6.4 kmh 30.20 in1022.7 mb 0.00 in0.0 mm 0.00 in0.0 mm 0.00 in0.0 mm
09:59 AM 73.9°F23.3°C 66.2°F19.0°C 77% 2.0 mph NE3.2 kmh NE 4.0 mph6.4 kmh 30.20 in1022.7 mb 0.00 in0.0 mm 0.00 in0.0 mm 0.00 in0.0 mm
10:10 AM 75.9°F24.4°C 67.1°F19.5°C 74% 2.0 mph NE3.2 kmh NE 4.0 mph6.4 kmh 30.20 in1022.7 mb 0.00 in0.0 mm 0.00 in0.0 mm 0.00 in0.0 mm
10:20 AM 77.4°F25.2°C 67.3°F19.6°C 71% 2.0 mph NE3.2 kmh NE 4.0 mph6.4 kmh 30.20 in1022.7 mb 0.00 in0.0 mm 0.00 in0.0 mm 0.00 in0.0 mm
10:30 AM 78.4°F25.8°C 67.5°F19.7°C 69% 2.9 mph NE4.7 kmh NE 4.9 mph7.9 kmh 30.20 in1022.7 mb 0.00 in0.0 mm 0.00 in0.0 mm 0.00 in0.0 mm
10:40 AM 79.7°F26.5°C 66.9°F19.4°C 65% 2.9 mph NE4.7 kmh NE 4.9 mph7.9 kmh 30.19 in1022.4 mb 0.00 in0.0 mm 0.00 in0.0 mm 0.00 in0.0 mm
10:50 AM 81.3°F27.4°C 67.5°F19.7°C 63% 2.0 mph NE3.2 kmh NE 6.0 mph9.7 kmh 30.19 in1022.4 mb 0.00 in0.0 mm 0.00 in0.0 mm 0.00 in0.0 mm
11:00 AM 82.6°F28.1°C 67.8°F19.9°C 61% 2.9 mph 4.7 kmh 8.1 mph13.0 kmh 30.19 in1022.4 mb 0.00 in0.0 mm 0.00 in0.0 mm 0.00 in0.0 mm
11:10 AM 84.0°F28.9°C 68.2°F20.1°C 59% 2.9 mph NNW4.7 kmh NNW 6.0 mph9.7 kmh 30.19 in1022.4 mb 0.00 in0.0 mm 0.00 in0.0 mm 0.00 in0.0 mm
11:20 AM 85.5°F29.7°C 67.5°F19.7°C 55% 2.9 mph NNW4.7 kmh NNW 6.0 mph9.7 kmh 30.18 in1022.0 mb 0.00 in0.0 mm 0.00 in0.0 mm 0.00 in0.0 mm
11:30 AM 86.9°F30.5°C 67.1°F19.5°C 52% 4.0 mph NW6.4 kmh NW 8.1 mph13.0 kmh 30.18 in1022.0 mb 0.00 in0.0 mm 0.00 in0.0 mm 0.00 in0.0 mm
11:40 AM 88.2°F31.2°C 66.6°F19.2°C 49% 4.9 mph WNW7.9 kmh WNW 8.9 mph14.3 kmh 30.17 in1021.7 mb 0.00 in0.0 mm 0.00 in0.0 mm 0.00 in0.0 mm
11:50 AM 88.9°F31.6°C 65.5°F18.6°C 46% 4.9 mph NW7.9 kmh NW 12.1 mph19.5 kmh 30.17 in1021.7 mb 0.00 in0.0 mm 0.00 in0.0 mm 0.00 in0.0 mm
12:00 PM 89.6°F32.0°C 65.5°F18.6°C 45% 4.0 mph 6.4 kmh 8.9 mph14.3 kmh 30.17 in1021.7 mb 0.00 in0.0 mm 0.00 in0.0 mm 0.00 in0.0 mm
12:10 PM 90.3°F32.4°C 64.8°F18.2°C 43% 4.0 mph NW6.4 kmh NW 8.9 mph14.3 kmh 30.16 in1021.3 mb 0.00 in0.0 mm 0.00 in0.0 mm 0.00 in0.0 mm
12:20 PM 91.6°F33.1°C 64.6°F18.1°C 41% 4.0 mph NNW6.4 kmh NNW 11.0 mph17.7 kmh 30.16 in1021.3 mb 0.00 in0.0 mm 0.00 in0.0 mm 0.00 in0.0 mm
12:30 PM 92.8°F33.8°C 64.2°F17.9°C 39% 4.0 mph N6.4 kmh N 8.9 mph14.3 kmh 30.16 in1021.3 mb 0.00 in0.0 mm 0.00 in0.0 mm 0.00 in0.0 mm
12:40 PM 93.9°F34.4°C 65.1°F18.4°C 39% 4.0 mph NNW6.4 kmh NNW 10.1 mph16.3 kmh 30.15 in1021.0 mb 0.00 in0.0 mm 0.00 in0.0 mm 0.00 in0.0 mm
12:50 PM 94.6°F34.8°C 63.5°F17.5°C 36% 4.0 mph WNW6.4 kmh WNW 8.1 mph13.0 kmh 30.15 in1021.0 mb 0.00 in0.0 mm 0.00 in0.0 mm 0.00 in0.0 mm
01:00 PM 95.2°F35.1°C 63.1°F17.3°C 35% 4.9 mph NW7.9 kmh NW 10.1 mph16.3 kmh 30.14 in1020.7 mb 0.00 in0.0 mm 0.00 in0.0 mm 0.00 in0.0 mm
01:10 PM 96.1°F35.6°C 62.2°F16.8°C 33% 6.0 mph NNW9.7 kmh NNW 11.0 mph17.7 kmh 30.14 in1020.7 mb 0.00 in0.0 mm 0.00 in0.0 mm 0.00 in0.0 mm
01:20 PM 96.6°F35.9°C 62.8°F17.1°C 33% 6.0 mph NW9.7 kmh NW 12.1 mph19.5 kmh 30.14 in1020.7 mb 0.00 in0.0 mm 0.00 in0.0 mm 0.00 in0.0 mm
01:30 PM 97.0°F36.1°C 64.0°F17.8°C 34% 6.9 mph NW11.1 kmh NW 13.0 mph20.9 kmh 30.13 in1020.3 mb 0.00 in0.0 mm 0.00 in0.0 mm 0.00 in0.0 mm
01:40 PM 96.3°F35.7°C 64.9°F18.3°C 36% 8.9 mph NW14.3 kmh NW 16.1 mph25.9 kmh 30.13 in1020.3 mb 0.00 in0.0 mm 0.00 in0.0 mm 0.00 in0.0 mm
01:50 PM 96.1°F35.6°C 64.8°F18.2°C 36% 8.1 mph NW13.0 kmh NW 13.0 mph20.9 kmh 30.13 in1020.3 mb 0.00 in0.0 mm 0.00 in0.0 mm 0.00 in0.0 mm
02:00 PM 95.0°F35.0°C 64.6°F18.1°C 37% 10.1 mph NW16.3 kmh NW 14.1 mph22.7 kmh 30.13 in1020.3 mb 0.00 in0.0 mm 0.00 in0.0 mm 0.00 in0.0 mm
02:10 PM 94.5°F34.7°C 63.3°F17.4°C 36% 10.1 mph NW16.3 kmh NW 15.0 mph24.1 kmh 30.12 in1020.0 mb 0.00 in0.0 mm 0.00 in0.0 mm 0.00 in0.0 mm
02:20 PM 93.7°F34.3°C 63.5°F17.5°C 37% 8.9 mph NW14.3 kmh NW 17.0 mph27.4 kmh 30.12 in1020.0 mb 0.00 in0.0 mm 0.00 in0.0 mm 0.00 in0.0 mm
02:30 PM 93.2°F34.0°C 63.9°F17.7°C 38% 8.1 mph NW13.0 kmh NW 16.1 mph25.9 kmh 30.12 in1020.0 mb 0.00 in0.0 mm 0.00 in0.0 mm 0.00 in0.0 mm
02:40 PM 92.5°F33.6°C 63.9°F17.7°C 39% 8.9 mph WNW14.3 kmh WNW 15.0 mph24.1 kmh 30.12 in1020.0 mb 0.00 in0.0 mm 0.00 in0.0 mm 0.00 in0.0 mm
02:50 PM 92.5°F33.6°C 63.9°F17.7°C 39% 8.1 mph WSW13.0 kmh WSW 14.1 mph22.7 kmh 30.12 in1020.0 mb 0.00 in0.0 mm 0.00 in0.0 mm 0.00 in0.0 mm
03:00 PM 91.8°F33.2°C 63.3°F17.4°C 39% 6.9 mph NNW11.1 kmh NNW 12.1 mph19.5 kmh 30.12 in1020.0 mb 0.00 in0.0 mm 0.00 in0.0 mm 0.00 in0.0 mm
03:10 PM 91.4°F33.0°C 63.7°F17.6°C 40% 6.9 mph NW11.1 kmh NW 13.0 mph20.9 kmh 30.12 in1020.0 mb 0.00 in0.0 mm 0.00 in0.0 mm 0.00 in0.0 mm
03:20 PM 91.0°F32.8°C 63.3°F17.4°C 40% 6.9 mph NW11.1 kmh NW 12.1 mph19.5 kmh 30.12 in1020.0 mb 0.00 in0.0 mm 0.00 in0.0 mm 0.00 in0.0 mm
03:30 PM 91.2°F32.9°C 63.5°F17.5°C 40% 6.0 mph NW9.7 kmh NW 13.0 mph20.9 kmh 30.11 in1019.6 mb 0.00 in0.0 mm 0.00 in0.0 mm 0.00 in0.0 mm
03:40 PM 90.9°F32.7°C 63.9°F17.7°C 41% 4.9 mph NNW7.9 kmh NNW 13.0 mph20.9 kmh 30.11 in1019.6 mb 0.00 in0.0 mm 0.00 in0.0 mm 0.00 in0.0 mm
03:50 PM 91.0°F32.8°C 63.3°F17.4°C 40% 2.9 mph NW4.7 kmh NW 12.1 mph19.5 kmh 30.11 in1019.6 mb 0.00 in0.0 mm 0.00 in0.0 mm 0.00 in0.0 mm
04:00 PM 90.9°F32.7°C 63.1°F17.3°C 40% 6.0 mph NW9.7 kmh NW 12.1 mph19.5 kmh 30.11 in1019.6 mb 0.00 in0.0 mm 0.00 in0.0 mm 0.00 in0.0 mm
04:10 PM 90.5°F32.5°C 64.2°F17.9°C 42% 4.0 mph NNW6.4 kmh NNW 10.1 mph16.3 kmh 30.11 in1019.6 mb 0.00 in0.0 mm 0.00 in0.0 mm 0.00 in0.0 mm
04:20 PM 89.2°F31.8°C 62.4°F16.9°C 41% 6.9 mph NW11.1 kmh NW 15.0 mph24.1 kmh 30.11 in1019.6 mb 0.00 in0.0 mm 0.00 in0.0 mm 0.00 in0.0 mm
04:30 PM 88.3°F31.3°C 62.4°F16.9°C 42% 6.9 mph NW11.1 kmh NW 14.1 mph22.7 kmh 30.11 in1019.6 mb 0.00 in0.0 mm 0.00 in0.0 mm 0.00 in0.0 mm
04:40 PM 87.4°F30.8°C 61.5°F16.4°C 42% 6.9 mph N11.1 kmh N 17.0 mph27.4 kmh 30.11 in1019.6 mb 0.00 in0.0 mm 0.00 in0.0 mm 0.00 in0.0 mm
04:50 PM 86.5°F30.3°C 61.3°F16.3°C 43% 6.0 mph NW9.7 kmh NW 13.0 mph20.9 kmh 30.11 in1019.6 mb 0.00 in0.0 mm 0.00 in0.0 mm 0.00 in0.0 mm
05:00 PM 86.2°F30.1°C 62.4°F16.9°C 45% 6.0 mph NW9.7 kmh NW 14.1 mph22.7 kmh 30.11 in1019.6 mb 0.00 in0.0 mm 0.00 in0.0 mm 0.00 in0.0 mm
05:10 PM 86.2°F30.1°C 61.7°F16.5°C 44% 4.9 mph NW7.9 kmh NW 12.1 mph19.5 kmh 30.11 in1019.6 mb 0.00 in0.0 mm 0.00 in0.0 mm 0.00 in0.0 mm
05:20 PM 85.5°F29.7°C 61.0°F16.1°C 44% 4.9 mph N7.9 kmh N 12.1 mph19.5 kmh 30.11 in1019.6 mb 0.00 in0.0 mm 0.00 in0.0 mm 0.00 in0.0 mm
05:30 PM 84.2°F29.0°C 61.2°F16.2°C 46% 4.9 mph N7.9 kmh N 8.9 mph14.3 kmh 30.11 in1019.6 mb 0.00 in0.0 mm 0.00 in0.0 mm 0.00 in0.0 mm
05:40 PM 83.1°F28.4°C 61.3°F16.3°C 48% 4.0 mph NNW6.4 kmh NNW 10.1 mph16.3 kmh 30.11 in1019.6 mb 0.00 in0.0 mm 0.00 in0.0 mm 0.00 in0.0 mm
05:50 PM 82.0°F27.8°C 61.0°F16.1°C 49% 2.9 mph NW4.7 kmh NW 6.0 mph9.7 kmh 30.11 in1019.6 mb 0.00 in0.0 mm 0.00 in0.0 mm 0.00 in0.0 mm
06:00 PM 80.8°F27.1°C 61.5°F16.4°C 52% 0.9 mph NW1.4 kmh NW 4.0 mph6.4 kmh 30.11 in1019.6 mb 0.00 in0.0 mm 0.00 in0.0 mm 0.00 in0.0 mm
06:10 PM 79.3°F26.3°C 61.2°F16.2°C 54% 2.9 mph NW4.7 kmh NW 8.9 mph14.3 kmh 30.11 in1019.6 mb 0.00 in0.0 mm 0.00 in0.0 mm 0.00 in0.0 mm
06:20 PM 78.1°F25.6°C 61.2°F16.2°C 56% 0.9 mph WSW1.4 kmh WSW 4.0 mph6.4 kmh 30.11 in1019.6 mb 0.00 in0.0 mm 0.00 in0.0 mm 0.00 in0.0 mm
06:30 PM 76.8°F24.9°C 61.0°F16.1°C 58% 2.9 mph NW4.7 kmh NW 4.9 mph7.9 kmh 30.11 in1019.6 mb 0.00 in0.0 mm 0.00 in0.0 mm 0.00 in0.0 mm
06:41 PM 75.7°F24.3°C 60.8°F16.0°C 60% 2.0 mph NW3.2 kmh NW 8.1 mph13.0 kmh 30.12 in1020.0 mb 0.00 in0.0 mm 0.00 in0.0 mm 0.00 in0.0 mm
06:51 PM 74.5°F23.6°C 60.6°F15.9°C 62% 0.9 mph NW1.4 kmh NW 2.0 mph3.2 kmh 30.12 in1020.0 mb 0.00 in0.0 mm 0.00 in0.0 mm 0.00 in0.0 mm
07:01 PM 73.0°F22.8°C 60.6°F15.9°C 65% 2.0 mph W3.2 kmh W 2.9 mph4.7 kmh 30.12 in1020.0 mb 0.00 in0.0 mm 0.00 in0.0 mm 0.00 in0.0 mm
07:11 PM 72.1°F22.3°C 60.1°F15.6°C 66% 2.0 mph W3.2 kmh W 2.9 mph4.7 kmh 30.12 in1020.0 mb 0.00 in0.0 mm 0.00 in0.0 mm 0.00 in0.0 mm
07:21 PM 71.2°F21.8°C 59.7°F15.4°C 67% 2.0 mph W3.2 kmh W 2.9 mph4.7 kmh 30.13 in1020.3 mb 0.00 in0.0 mm 0.00 in0.0 mm 0.00 in0.0 mm
07:31 PM 70.5°F21.4°C 59.9°F15.5°C 69% 2.0 mph W3.2 kmh W 2.9 mph4.7 kmh 30.13 in1020.3 mb 0.00 in0.0 mm 0.00 in0.0 mm 0.00 in0.0 mm
07:41 PM 70.2°F21.2°C 59.9°F15.5°C 70% 0.9 mph W1.4 kmh W 2.9 mph4.7 kmh 30.13 in1020.3 mb 0.00 in0.0 mm 0.00 in0.0 mm 0.00 in0.0 mm
07:51 PM 69.4°F20.8°C 59.5°F15.3°C 71% Calm Calm 0.9 mph1.4 kmh 30.14 in1020.7 mb 0.00 in0.0 mm 0.00 in0.0 mm 0.00 in0.0 mm
08:01 PM 68.9°F20.5°C 59.5°F15.3°C 72% 0.9 mph W1.4 kmh W 2.0 mph3.2 kmh 30.14 in1020.7 mb 0.00 in0.0 mm 0.00 in0.0 mm 0.00 in0.0 mm
08:11 PM 68.4°F20.2°C 59.4°F15.2°C 73% 0.9 mph W1.4 kmh W 2.0 mph3.2 kmh 30.14 in1020.7 mb 0.00 in0.0 mm 0.00 in0.0 mm 0.00 in0.0 mm
08:21 PM 67.6°F19.8°C 59.4°F15.2°C 75% 0.9 mph W1.4 kmh W 2.9 mph4.7 kmh 30.14 in1020.7 mb 0.00 in0.0 mm 0.00 in0.0 mm 0.00 in0.0 mm
08:31 PM 67.1°F19.5°C 59.4°F15.2°C 76% 0.9 mph W1.4 kmh W 2.9 mph4.7 kmh 30.14 in1020.7 mb 0.00 in0.0 mm 0.00 in0.0 mm 0.00 in0.0 mm
08:41 PM 66.6°F19.2°C 59.5°F15.3°C 78% 0.9 mph W1.4 kmh W 2.0 mph3.2 kmh 30.14 in1020.7 mb 0.00 in0.0 mm 0.00 in0.0 mm 0.00 in0.0 mm
08:51 PM 66.4°F19.1°C 59.7°F15.4°C 79% Calm Calm 2.0 mph3.2 kmh 30.14 in1020.7 mb 0.00 in0.0 mm 0.00 in0.0 mm 0.00 in0.0 mm
09:01 PM 65.8°F18.8°C 59.2°F15.1°C 79% Calm Calm 2.0 mph3.2 kmh 30.14 in1020.7 mb 0.00 in0.0 mm 0.00 in0.0 mm 0.00 in0.0 mm
09:12 PM 65.3°F18.5°C 59.0°F15.0°C 80% Calm Calm 0.9 mph1.4 kmh 30.15 in1021.0 mb 0.00 in0.0 mm 0.00 in0.0 mm 0.00 in0.0 mm
09:22 PM 64.8°F18.2°C 58.8°F14.9°C 81% Calm Calm -- 30.14 in1020.7 mb 0.00 in0.0 mm 0.00 in0.0 mm 0.00 in0.0 mm
09:32 PM 64.2°F17.9°C 59.0°F15.0°C 83% Calm Calm -- 30.14 in1020.7 mb 0.00 in0.0 mm 0.00 in0.0 mm 0.00 in0.0 mm
09:42 PM 63.9°F17.7°C 58.6°F14.8°C 83% Calm Calm -- 30.14 in1020.7 mb 0.00 in0.0 mm 0.00 in0.0 mm 0.00 in0.0 mm
09:52 PM 63.3°F17.4°C 58.5°F14.7°C 84% Calm Calm -- 30.14 in1020.7 mb 0.00 in0.0 mm 0.00 in0.0 mm 0.00 in0.0 mm
10:02 PM 63.0°F17.2°C 58.5°F14.7°C 85% Calm Calm -- 30.14 in1020.7 mb 0.00 in0.0 mm 0.00 in0.0 mm 0.00 in0.0 mm
10:12 PM 62.4°F16.9°C 57.9°F14.4°C 85% Calm Calm -- 30.14 in1020.7 mb 0.00 in0.0 mm 0.00 in0.0 mm 0.00 in0.0 mm
10:23 PM 62.2°F16.8°C 57.9°F14.4°C 86% Calm Calm -- 30.14 in1020.7 mb 0.00 in0.0 mm 0.00 in0.0 mm 0.00 in0.0 mm
10:33 PM 61.7°F16.5°C 57.7°F14.3°C 87% Calm Calm -- 30.14 in1020.7 mb 0.00 in0.0 mm 0.00 in0.0 mm 0.00 in0.0 mm
10:43 PM 61.3°F16.3°C 57.4°F14.1°C 87% Calm Calm -- 30.14 in1020.7 mb 0.00 in0.0 mm 0.00 in0.0 mm 0.00 in0.0 mm
10:53 PM 61.2°F16.2°C 57.6°F14.2°C 88% Calm Calm -- 30.14 in1020.7 mb 0.00 in0.0 mm 0.00 in0.0 mm 0.00 in0.0 mm
11:03 PM 61.0°F16.1°C 57.4°F14.1°C 88% Calm Calm -- 30.14 in1020.7 mb 0.00 in0.0 mm 0.00 in0.0 mm 0.00 in0.0 mm
11:13 PM 60.6°F15.9°C 57.0°F13.9°C 88% Calm Calm -- 30.13 in1020.3 mb 0.00 in0.0 mm 0.00 in0.0 mm 0.00 in0.0 mm
11:23 PM 60.4°F15.8°C 57.2°F14.0°C 89% Calm Calm -- 30.13 in1020.3 mb 0.00 in0.0 mm 0.00 in0.0 mm 0.00 in0.0 mm
11:33 PM 60.1°F15.6°C 56.8°F13.8°C 89% Calm Calm -- 30.14 in1020.7 mb 0.00 in0.0 mm 0.00 in0.0 mm 0.00 in0.0 mm
11:43 PM 59.5°F15.3°C 56.3°F13.5°C 89% Calm Calm -- 30.13 in1020.3 mb 0.00 in0.0 mm 0.00 in0.0 mm 0.00 in0.0 mm
11:53 PM 59.4°F15.2°C 56.5°F13.6°C 90% Calm Calm -- 30.13 in1020.3 mb 0.00 in0.0 mm 0.00 in0.0 mm 0.00 in0.0 mm